sensor_id;sensor_type;location;lat;lon;timestamp;pressure;altitude;pressure_sealevel;temperature;humidity
50057;BME280;36875;49.468;11.200;2023-05-10T00:02:00;97236.34;;;19.69;46.84
50057;BME280;36875;49.468;11.200;2023-05-10T00:04:25;97244.53;;;19.69;46.57
50057;BME280;36875;49.468;11.200;2023-05-10T00:06:52;97247.25;;;19.69;46.81
50057;BME280;36875;49.468;11.200;2023-05-10T00:09:18;97247.25;;;19.69;46.77
50057;BME280;36875;49.468;11.200;2023-05-10T00:11:43;97239.06;;;19.69;46.68
50057;BME280;36875;49.468;11.200;2023-05-10T00:14:11;97238.28;;;19.69;46.97
50057;BME280;36875;49.468;11.200;2023-05-10T00:16:36;97246.47;;;19.69;46.84
50057;BME280;36875;49.468;11.200;2023-05-10T00:19:02;97229.59;;;19.67;46.56
50057;BME280;36875;49.468;11.200;2023-05-10T00:21:27;97234.72;;;19.68;46.96
50057;BME280;36875;49.468;11.200;2023-05-10T00:23:53;97231.22;;;19.68;46.55
50057;BME280;36875;49.468;11.200;2023-05-10T00:26:19;97230.41;;;19.67;46.91
50057;BME280;36875;49.468;11.200;2023-05-10T00:28:45;97231.22;;;19.68;46.88
50057;BME280;36875;49.468;11.200;2023-05-10T00:31:11;97223.34;;;19.66;46.75
50057;BME280;36875;49.468;11.200;2023-05-10T00:33:37;97224.13;;;19.67;46.75
50057;BME280;36875;49.468;11.200;2023-05-10T00:36:03;97226.84;;;19.67;46.80
50057;BME280;36875;49.468;11.200;2023-05-10T00:38:28;97233.13;;;19.67;46.74
50057;BME280;36875;49.468;11.200;2023-05-10T00:40:54;97233.94;;;19.68;46.88
50057;BME280;36875;49.468;11.200;2023-05-10T00:43:19;97231.22;;;19.68;46.76
50057;BME280;36875;49.468;11.200;2023-05-10T00:45:45;97238.59;;;19.67;46.81
50057;BME280;36875;49.468;11.200;2023-05-10T00:48:13;97231.22;;;19.68;46.96
50057;BME280;36875;49.468;11.200;2023-05-10T00:50:38;97233.13;;;19.67;46.73
50057;BME280;36875;49.468;11.200;2023-05-10T00:53:06;97233.47;;;19.65;46.67
50057;BME280;36875;49.468;11.200;2023-05-10T00:55:31;97238.59;;;19.67;46.97
50057;BME280;36875;49.468;11.200;2023-05-10T00:57:57;97239.72;;;19.66;46.61
50057;BME280;36875;49.468;11.200;2023-05-10T01:00:22;97236.50;;;19.64;46.81
50057;BME280;36875;49.468;11.200;2023-05-10T01:02:48;97236.97;;;19.66;46.83
50057;BME280;36875;49.468;11.200;2023-05-10T01:05:16;97220.44;;;19.62;46.71
50057;BME280;36875;49.468;11.200;2023-05-10T01:07:41;97230.72;;;19.65;46.91
50057;BME280;36875;49.468;11.200;2023-05-10T01:10:08;97235.41;;;19.65;46.76
50057;BME280;36875;49.468;11.200;2023-05-10T01:12:34;97240.84;;;19.65;46.51
50057;BME280;36875;49.468;11.200;2023-05-10T01:15:01;97235.72;;;19.63;46.90
50057;BME280;36875;49.468;11.200;2023-05-10T01:17:27;97231.84;;;19.64;46.80
50057;BME280;36875;49.468;11.200;2023-05-10T01:19:53;97226.38;;;19.64;47.01
50057;BME280;36875;49.468;11.200;2023-05-10T01:22:35;97232.66;;;19.65;46.80
50057;BME280;36875;49.468;11.200;2023-05-10T01:25:13;97243.59;;;19.65;46.74
50057;BME280;36875;49.468;11.200;2023-05-10T01:28:10;97239.25;;;19.64;46.88
50057;BME280;36875;49.468;11.200;2023-05-10T01:30:55;97235.41;;;19.65;46.56
50057;BME280;36875;49.468;11.200;2023-05-10T01:33:30;97234.56;;;19.64;46.58
50057;BME280;36875;49.468;11.200;2023-05-10T01:36:05;97228.31;;;19.64;46.81
50057;BME280;36875;49.468;11.200;2023-05-10T01:38:38;97227.84;;;19.62;46.57
50057;BME280;36875;49.468;11.200;2023-05-10T01:41:13;97233.78;;;19.64;47.03
50057;BME280;36875;49.468;11.200;2023-05-10T01:43:46;97233.78;;;19.64;46.84
50057;BME280;36875;49.468;11.200;2023-05-10T01:46:17;97228.31;;;19.64;46.72
50057;BME280;36875;49.468;11.200;2023-05-10T01:48:47;97238.75;;;19.62;46.75
50057;BME280;36875;49.468;11.200;2023-05-10T01:51:16;97237.66;;;19.63;46.66
50057;BME280;36875;49.468;11.200;2023-05-10T01:53:43;97241.97;;;19.64;46.84
50057;BME280;36875;49.468;11.200;2023-05-10T01:56:10;97239.56;;;19.62;46.84
50057;BME280;36875;49.468;11.200;2023-05-10T01:58:37;97241.19;;;19.63;46.99
50057;BME280;36875;49.468;11.200;2023-05-10T02:01:05;97240.38;;;19.63;46.78
50057;BME280;36875;49.468;11.200;2023-05-10T02:03:35;97241.50;;;19.62;46.46
50057;BME280;36875;49.468;11.200;2023-05-10T02:06:04;97243.13;;;19.63;46.65
50057;BME280;36875;49.468;11.200;2023-05-10T02:08:31;97236.03;;;19.62;46.73
50057;BME280;36875;49.468;11.200;2023-05-10T02:10:58;97240.38;;;19.63;46.78
50057;BME280;36875;49.468;11.200;2023-05-10T02:13:25;97243.13;;;19.63;46.41
50057;BME280;36875;49.468;11.200;2023-05-10T02:15:53;97230.56;;;19.62;46.91
50057;BME280;36875;49.468;11.200;2023-05-10T02:18:20;97238.75;;;19.62;46.73
50057;BME280;36875;49.468;11.200;2023-05-10T02:20:48;97236.03;;;19.62;46.81
50057;BME280;36875;49.468;11.200;2023-05-10T02:23:16;97225.13;;;19.62;47.00
50057;BME280;36875;49.468;11.200;2023-05-10T02:25:43;97225.13;;;19.62;46.87
50057;BME280;36875;49.468;11.200;2023-05-10T02:28:10;97227.38;;;19.60;46.73
50057;BME280;36875;49.468;11.200;2023-05-10T02:30:37;97227.06;;;19.61;46.50
50057;BME280;36875;49.468;11.200;2023-05-10T02:33:04;97236.03;;;19.62;46.78
50057;BME280;36875;49.468;11.200;2023-05-10T02:35:30;97234.41;;;19.61;46.69
50057;BME280;36875;49.468;11.200;2023-05-10T02:37:59;97238.75;;;19.62;46.90
50057;BME280;36875;49.468;11.200;2023-05-10T02:40:27;97239.88;;;19.61;46.78
50057;BME280;36875;49.468;11.200;2023-05-10T02:42:54;97229.78;;;19.61;46.65
50057;BME280;36875;49.468;11.200;2023-05-10T02:45:24;97237.97;;;19.61;46.70
50057;BME280;36875;49.468;11.200;2023-05-10T02:47:51;97236.03;;;19.62;46.87
50057;BME280;36875;49.468;11.200;2023-05-10T02:50:17;97236.03;;;19.62;46.53
50057;BME280;36875;49.468;11.200;2023-05-10T02:52:46;97228.16;;;19.60;47.02
50057;BME280;36875;49.468;11.200;2023-05-10T02:55:14;97228.16;;;19.60;46.88
50057;BME280;36875;49.468;11.200;2023-05-10T02:57:46;97236.03;;;19.62;46.98
50057;BME280;36875;49.468;11.200;2023-05-10T03:00:14;97228.97;;;19.61;46.83
50057;BME280;36875;49.468;11.200;2023-05-10T03:02:39;97226.59;;;19.59;46.60
50057;BME280;36875;49.468;11.200;2023-05-10T03:05:06;97230.09;;;19.60;46.90
50057;BME280;36875;49.468;11.200;2023-05-10T03:07:32;97224.97;;;19.58;46.74
50057;BME280;36875;49.468;11.200;2023-05-10T03:09:58;97229.31;;;19.59;46.66
50057;BME280;36875;49.468;11.200;2023-05-10T03:12:33;97226.22;;;19.61;46.83
50057;BME280;36875;49.468;11.200;2023-05-10T03:15:11;97225.44;;;19.60;46.61
50057;BME280;36875;49.468;11.200;2023-05-10T03:17:44;97227.38;;;19.60;46.89
50057;BME280;36875;49.468;11.200;2023-05-10T03:20:16;97232.84;;;19.60;46.97
50057;BME280;36875;49.468;11.200;2023-05-10T03:22:49;97230.09;;;19.60;46.67
50057;BME280;36875;49.468;11.200;2023-05-10T03:25:16;97235.56;;;19.60;46.52
50057;BME280;36875;49.468;11.200;2023-05-10T03:27:44;97239.09;;;19.60;46.65
50057;BME280;36875;49.468;11.200;2023-05-10T03:30:12;97239.41;;;19.59;46.67
50057;BME280;36875;49.468;11.200;2023-05-10T03:32:38;97242.97;;;19.59;46.76
50057;BME280;36875;49.468;11.200;2023-05-10T03:35:06;97245.69;;;19.59;46.65
50057;BME280;36875;49.468;11.200;2023-05-10T03:37:32;97242.13;;;19.59;46.85
50057;BME280;36875;49.468;11.200;2023-05-10T03:39:58;97247.59;;;19.59;47.02
50057;BME280;36875;49.468;11.200;2023-05-10T03:42:23;97251.16;;;19.59;46.82
50057;BME280;36875;49.468;11.200;2023-05-10T03:44:49;97250.31;;;19.59;46.84
50057;BME280;36875;49.468;11.200;2023-05-10T03:47:16;97254.19;;;19.58;46.62
50057;BME280;36875;49.468;11.200;2023-05-10T03:49:41;97255.78;;;19.59;47.02
50057;BME280;36875;49.468;11.200;2023-05-10T03:52:07;97258.50;;;19.59;46.83
50057;BME280;36875;49.468;11.200;2023-05-10T03:54:32;97255.78;;;19.59;46.61
50057;BME280;36875;49.468;11.200;2023-05-10T03:56:58;97261.25;;;19.59;46.70
50057;BME280;36875;49.468;11.200;2023-05-10T03:59:23;97263.97;;;19.59;46.83
50057;BME280;36875;49.468;11.200;2023-05-10T04:01:49;97265.91;;;19.58;46.72
50057;BME280;36875;49.468;11.200;2023-05-10T04:04:16;97271.38;;;19.58;46.67
50057;BME280;36875;49.468;11.200;2023-05-10T04:06:43;97277.63;;;19.59;46.86
50057;BME280;36875;49.468;11.200;2023-05-10T04:09:09;97277.63;;;19.59;46.86
50057;BME280;36875;49.468;11.200;2023-05-10T04:11:34;97267.69;;;19.54;46.77
50057;BME280;36875;49.468;11.200;2023-05-10T04:14:00;97286.47;;;19.56;46.74
50057;BME280;36875;49.468;11.200;2023-05-10T04:16:25;97282.28;;;19.58;46.56
50057;BME280;36875;49.468;11.200;2023-05-10T04:18:50;97284.22;;;19.58;46.59
50057;BME280;36875;49.468;11.200;2023-05-10T04:21:17;97290.47;;;19.58;46.72
50057;BME280;36875;49.468;11.200;2023-05-10T04:23:43;97288.53;;;19.59;46.85
50057;BME280;36875;49.468;11.200;2023-05-10T04:26:08;97293.53;;;19.57;46.66
50057;BME280;36875;49.468;11.200;2023-05-10T04:28:34;97292.41;;;19.58;46.56
50057;BME280;36875;49.468;11.200;2023-05-10T04:31:01;97289.69;;;19.58;46.83
50057;BME280;36875;49.468;11.200;2023-05-10T04:33:27;97293.53;;;19.57;46.73
50057;BME280;36875;49.468;11.200;2023-05-10T04:35:53;97297.03;;;19.57;46.56
50057;BME280;36875;49.468;11.200;2023-05-10T04:38:19;97299.78;;;19.57;46.94
50057;BME280;36875;49.468;11.200;2023-05-10T04:40:45;97298.97;;;19.57;46.67
50057;BME280;36875;49.468;11.200;2023-05-10T04:43:10;97299.78;;;19.57;46.68
50057;BME280;36875;49.468;11.200;2023-05-10T04:45:36;97298.97;;;19.57;46.50
50057;BME280;36875;49.468;11.200;2023-05-10T04:48:01;97310.69;;;19.57;46.99
50057;BME280;36875;49.468;11.200;2023-05-10T04:50:27;97309.91;;;19.57;46.98
50057;BME280;36875;49.468;11.200;2023-05-10T04:52:52;97304.44;;;19.57;46.73
50057;BME280;36875;49.468;11.200;2023-05-10T04:55:19;97317.28;;;19.56;46.76
50057;BME280;36875;49.468;11.200;2023-05-10T04:57:45;97317.28;;;19.56;46.74
50057;BME280;36875;49.468;11.200;2023-05-10T05:00:11;97320.00;;;19.56;46.56
50057;BME280;36875;49.468;11.200;2023-05-10T05:02:37;97328.19;;;19.56;46.81
50057;BME280;36875;49.468;11.200;2023-05-10T05:05:03;97329.31;;;19.55;46.58
50057;BME280;36875;49.468;11.200;2023-05-10T05:07:28;97328.53;;;19.55;46.64
50057;BME280;36875;49.468;11.200;2023-05-10T05:09:55;97334.47;;;19.57;46.93
50057;BME280;36875;49.468;11.200;2023-05-10T05:12:22;97342.66;;;19.57;47.05
50057;BME280;36875;49.468;11.200;2023-05-10T05:14:48;97346.50;;;19.56;47.29
50057;BME280;36875;49.468;11.200;2023-05-10T05:17:13;97348.09;;;19.57;46.98
50057;BME280;36875;49.468;11.200;2023-05-10T05:19:38;97357.91;;;19.58;46.99
50057;BME280;36875;49.468;11.200;2023-05-10T05:22:06;97352.28;;;19.54;47.20
50057;BME280;36875;49.468;11.200;2023-05-10T05:24:34;97349.72;;;19.58;47.42
50057;BME280;36875;49.468;11.200;2023-05-10T05:27:00;97356.78;;;19.59;47.53
50057;BME280;36875;49.468;11.200;2023-05-10T05:29:27;97360.47;;;19.63;48.04
50057;BME280;36875;49.468;11.200;2023-05-10T05:31:53;97358.06;;;19.61;47.83
50057;BME280;36875;49.468;11.200;2023-05-10T05:34:18;97360.31;;;19.59;47.94
50057;BME280;36875;49.468;11.200;2023-05-10T05:36:45;97355.66;;;19.60;48.14
50057;BME280;36875;49.468;11.200;2023-05-10T05:39:11;97361.13;;;19.60;47.92
50057;BME280;36875;49.468;11.200;2023-05-10T05:41:36;97361.44;;;19.58;48.14
50057;BME280;36875;49.468;11.200;2023-05-10T05:44:02;97367.69;;;19.59;47.96
50057;BME280;36875;49.468;11.200;2023-05-10T05:46:29;97363.06;;;19.59;48.20
50057;BME280;36875;49.468;11.200;2023-05-10T05:48:54;97364.97;;;19.59;48.31
50057;BME280;36875;49.468;11.200;2023-05-10T05:51:20;97370.41;;;19.59;48.53
50057;BME280;36875;49.468;11.200;2023-05-10T05:53:45;97371.72;;;19.61;48.24
50057;BME280;36875;49.468;11.200;2023-05-10T05:56:11;97373.16;;;19.59;48.65
50057;BME280;36875;49.468;11.200;2023-05-10T05:58:36;97380.22;;;19.60;48.76
50057;BME280;36875;49.468;11.200;2023-05-10T06:01:02;97376.34;;;19.61;48.71
50057;BME280;36875;49.468;11.200;2023-05-10T06:03:29;97383.75;;;19.60;48.41
50057;BME280;36875;49.468;11.200;2023-05-10T06:05:54;97391.63;;;19.62;48.55
50057;BME280;36875;49.468;11.200;2023-05-10T06:08:20;97388.09;;;19.61;49.15
50057;BME280;36875;49.468;11.200;2023-05-10T06:10:45;97403.66;;;19.61;48.78
50057;BME280;36875;49.468;11.200;2023-05-10T06:13:11;97399.00;;;19.61;48.86
50057;BME280;36875;49.468;11.200;2023-05-10T06:15:37;97398.19;;;19.61;48.68
50057;BME280;36875;49.468;11.200;2023-05-10T06:18:05;97403.66;;;19.61;49.09
50057;BME280;36875;49.468;11.200;2023-05-10T06:20:32;97398.19;;;19.61;49.00
50057;BME280;36875;49.468;11.200;2023-05-10T06:22:58;97408.31;;;19.60;48.97
50057;BME280;36875;49.468;11.200;2023-05-10T06:25:24;97409.78;;;19.58;48.95
50057;BME280;36875;49.468;11.200;2023-05-10T06:27:49;97412.97;;;19.60;48.43
50057;BME280;36875;49.468;11.200;2023-05-10T06:30:15;97415.72;;;19.60;48.44
50057;BME280;36875;49.468;11.200;2023-05-10T06:32:40;97415.72;;;19.60;48.70
50057;BME280;36875;49.468;11.200;2023-05-10T06:35:07;97412.97;;;19.60;48.82
50057;BME280;36875;49.468;11.200;2023-05-10T06:37:34;97416.81;;;19.59;48.89
50057;BME280;36875;49.468;11.200;2023-05-10T06:40:00;97416.03;;;19.58;48.91
50057;BME280;36875;49.468;11.200;2023-05-10T06:42:25;97426.63;;;19.60;48.78
50057;BME280;36875;49.468;11.200;2023-05-10T06:44:52;97413.28;;;19.58;48.71
50057;BME280;36875;49.468;11.200;2023-05-10T06:47:17;97417.97;;;19.58;48.63
50057;BME280;36875;49.468;11.200;2023-05-10T06:49:43;97427.72;;;19.59;48.70
50057;BME280;36875;49.468;11.200;2023-05-10T06:52:08;97427.72;;;19.59;48.45
50057;BME280;36875;49.468;11.200;2023-05-10T06:54:35;97417.97;;;19.58;48.47
50057;BME280;36875;49.468;11.200;2023-05-10T06:57:01;97417.47;;;19.56;48.27
50057;BME280;36875;49.468;11.200;2023-05-10T06:59:28;97419.84;;;19.57;48.42
50057;BME280;36875;49.468;11.200;2023-05-10T07:01:53;97423.41;;;19.58;48.45
50057;BME280;36875;49.468;11.200;2023-05-10T07:04:19;97421.78;;;19.57;48.54
50057;BME280;36875;49.468;11.200;2023-05-10T07:06:45;97426.94;;;19.58;48.39
50057;BME280;36875;49.468;11.200;2023-05-10T07:09:11;97432.41;;;19.58;48.38
50057;BME280;36875;49.468;11.200;2023-05-10T07:11:38;97431.59;;;19.58;48.42
50057;BME280;36875;49.468;11.200;2023-05-10T07:14:03;97432.41;;;19.58;48.44
50057;BME280;36875;49.468;11.200;2023-05-10T07:16:29;97435.91;;;19.59;48.44
50057;BME280;36875;49.468;11.200;2023-05-10T07:18:54;97438.66;;;19.59;48.41
50057;BME280;36875;49.468;11.200;2023-05-10T07:21:20;97438.66;;;19.59;48.42
50057;BME280;36875;49.468;11.200;2023-05-10T07:23:46;97437.84;;;19.58;48.19
50057;BME280;36875;49.468;11.200;2023-05-10T07:26:13;97447.97;;;19.58;48.34
50057;BME280;36875;49.468;11.200;2023-05-10T07:28:41;97437.84;;;19.58;48.05
50057;BME280;36875;49.468;11.200;2023-05-10T07:31:06;97453.13;;;19.59;48.15
50057;BME280;36875;49.468;11.200;2023-05-10T07:33:32;97443.31;;;19.58;48.08
50057;BME280;36875;49.468;11.200;2023-05-10T07:35:57;97443.31;;;19.58;48.38
50057;BME280;36875;49.468;11.200;2023-05-10T07:38:23;97445.56;;;19.56;48.05
50057;BME280;36875;49.468;11.200;2023-05-10T07:40:48;97450.41;;;19.59;47.89
50057;BME280;36875;49.468;11.200;2023-05-10T07:43:14;97454.22;;;19.58;48.25
50057;BME280;36875;49.468;11.200;2023-05-10T07:45:41;97453.44;;;19.58;48.27
50057;BME280;36875;49.468;11.200;2023-05-10T07:48:06;97457.75;;;19.59;48.25
50057;BME280;36875;49.468;11.200;2023-05-10T07:50:32;97457.75;;;19.59;48.10
50057;BME280;36875;49.468;11.200;2023-05-10T07:52:58;97463.22;;;19.59;47.95
50057;BME280;36875;49.468;11.200;2023-05-10T07:55:23;97463.22;;;19.59;48.02
50057;BME280;36875;49.468;11.200;2023-05-10T07:57:49;97458.91;;;19.58;48.11
50057;BME280;36875;49.468;11.200;2023-05-10T08:00:17;97464.34;;;19.58;48.17
50057;BME280;36875;49.468;11.200;2023-05-10T08:02:44;97465.16;;;19.58;48.21
50057;BME280;36875;49.468;11.200;2023-05-10T08:05:10;97469.81;;;19.58;48.34
50057;BME280;36875;49.468;11.200;2023-05-10T08:07:36;97468.50;;;19.55;48.26
50057;BME280;36875;49.468;11.200;2023-05-10T08:10:01;97470.59;;;19.58;48.22
50057;BME280;36875;49.468;11.200;2023-05-10T08:12:27;97471.41;;;19.59;48.28
50057;BME280;36875;49.468;11.200;2023-05-10T08:14:52;97474.13;;;19.59;48.14
50057;BME280;36875;49.468;11.200;2023-05-10T08:17:18;97472.53;;;19.58;47.97
50057;BME280;36875;49.468;11.200;2023-05-10T08:19:44;97478.00;;;19.58;48.07
50057;BME280;36875;49.468;11.200;2023-05-10T08:22:10;97472.38;;;19.54;48.13
50057;BME280;36875;49.468;11.200;2023-05-10T08:24:36;97481.53;;;19.58;47.97
50057;BME280;36875;49.468;11.200;2023-05-10T08:27:03;97472.84;;;19.56;48.04
50057;BME280;36875;49.468;11.200;2023-05-10T08:29:29;97479.13;;;19.57;48.05
50057;BME280;36875;49.468;11.200;2023-05-10T08:31:54;97483.78;;;19.56;48.30
50057;BME280;36875;49.468;11.200;2023-05-10T08:34:20;97483.78;;;19.56;47.98
50057;BME280;36875;49.468;11.200;2023-05-10T08:36:46;97478.31;;;19.56;48.02
50057;BME280;36875;49.468;11.200;2023-05-10T08:39:12;97487.63;;;19.55;48.17
50057;BME280;36875;49.468;11.200;2023-05-10T08:41:39;97490.03;;;19.57;47.92
50057;BME280;36875;49.468;11.200;2023-05-10T08:44:07;97487.63;;;19.55;48.31
50057;BME280;36875;49.468;11.200;2023-05-10T08:46:34;97499.34;;;19.56;47.98
50057;BME280;36875;49.468;11.200;2023-05-10T08:49:02;97489.22;;;19.56;48.29
50057;BME280;36875;49.468;11.200;2023-05-10T08:51:33;97491.97;;;19.56;48.18
50057;BME280;36875;49.468;11.200;2023-05-10T08:54:02;97490.34;;;19.55;47.98
50057;BME280;36875;49.468;11.200;2023-05-10T08:56:28;97490.03;;;19.57;48.23
50057;BME280;36875;49.468;11.200;2023-05-10T08:58:54;97488.44;;;19.56;47.87
50057;BME280;36875;49.468;11.200;2023-05-10T09:01:21;97484.56;;;19.57;48.17
50057;BME280;36875;49.468;11.200;2023-05-10T09:03:46;97493.91;;;19.56;48.16
50057;BME280;36875;49.468;11.200;2023-05-10T09:06:13;97489.22;;;19.56;47.92
50057;BME280;36875;49.468;11.200;2023-05-10T09:08:39;97491.16;;;19.56;48.09
50057;BME280;36875;49.468;11.200;2023-05-10T09:11:08;97494.69;;;19.56;48.29
50057;BME280;36875;49.468;11.200;2023-05-10T09:13:35;97492.75;;;19.57;48.22
50057;BME280;36875;49.468;11.200;2023-05-10T09:16:03;97495.50;;;19.57;47.84
50057;BME280;36875;49.468;11.200;2023-05-10T09:18:29;97491.16;;;19.56;47.87
50057;BME280;36875;49.468;11.200;2023-05-10T09:20:55;97500.16;;;19.56;47.95
50057;BME280;36875;49.468;11.200;2023-05-10T09:23:20;97494.69;;;19.56;47.84
50057;BME280;36875;49.468;11.200;2023-05-10T09:25:46;97497.09;;;19.58;48.22
50057;BME280;36875;49.468;11.200;2023-05-10T09:28:13;97507.53;;;19.56;48.29
50057;BME280;36875;49.468;11.200;2023-05-10T09:30:38;97521.50;;;19.54;48.30
50057;BME280;36875;49.468;11.200;2023-05-10T09:33:04;97526.66;;;19.56;48.17
50057;BME280;36875;49.468;11.200;2023-05-10T09:35:31;97525.81;;;19.55;48.17
50057;BME280;36875;49.468;11.200;2023-05-10T09:37:59;97528.56;;;19.55;48.30
50057;BME280;36875;49.468;11.200;2023-05-10T09:40:27;97524.22;;;19.54;48.41
50057;BME280;36875;49.468;11.200;2023-05-10T09:42:54;97532.09;;;19.56;48.64
50057;BME280;36875;49.468;11.200;2023-05-10T09:45:23;97532.09;;;19.56;48.47
50057;BME280;36875;49.468;11.200;2023-05-10T09:47:48;97530.97;;;19.57;48.65
50057;BME280;36875;49.468;11.200;2023-05-10T09:50:14;97535.63;;;19.56;48.84
50057;BME280;36875;49.468;11.200;2023-05-10T09:52:47;97543.03;;;19.56;48.72
50057;BME280;36875;49.468;11.200;2023-05-10T09:55:13;97537.09;;;19.54;49.10
50057;BME280;36875;49.468;11.200;2023-05-10T09:57:39;97533.22;;;19.55;48.65
50057;BME280;36875;49.468;11.200;2023-05-10T10:00:06;97520.72;;;19.54;48.99
50057;BME280;36875;49.468;11.200;2023-05-10T10:02:33;97519.56;;;19.55;48.67
50057;BME280;36875;49.468;11.200;2023-05-10T10:05:00;97528.06;;;19.53;49.05
50057;BME280;36875;49.468;11.200;2023-05-10T10:07:26;97518.47;;;19.56;48.79
50057;BME280;36875;49.468;11.200;2023-05-10T10:09:52;97515.25;;;19.54;49.05
50057;BME280;36875;49.468;11.200;2023-05-10T10:12:18;97520.84;;;19.57;49.36
50057;BME280;36875;49.468;11.200;2023-05-10T10:14:46;97517.50;;;19.60;49.72
50057;BME280;36875;49.468;11.200;2023-05-10T10:17:12;97518.28;;;19.61;49.83
50057;BME280;36875;49.468;11.200;2023-05-10T10:19:39;97518.28;;;19.61;49.46
50057;BME280;36875;49.468;11.200;2023-05-10T10:22:05;97512.03;;;19.60;49.89
50057;BME280;36875;49.468;11.200;2023-05-10T10:24:31;97513.66;;;19.61;49.89
50057;BME280;36875;49.468;11.200;2023-05-10T10:27:02;97509.63;;;19.59;49.97
50057;BME280;36875;49.468;11.200;2023-05-10T10:29:35;97504.31;;;19.62;50.06
50057;BME280;36875;49.468;11.200;2023-05-10T10:32:09;97504.31;;;19.62;49.93
50057;BME280;36875;49.468;11.200;2023-05-10T10:34:39;97500.81;;;19.62;49.73
50057;BME280;36875;49.468;11.200;2023-05-10T10:37:05;97493.56;;;19.57;49.91
50057;BME280;36875;49.468;11.200;2023-05-10T10:39:31;97496.97;;;19.63;49.69
50057;BME280;36875;49.468;11.200;2023-05-10T10:41:58;97498.06;;;19.62;49.89
50057;BME280;36875;49.468;11.200;2023-05-10T10:44:36;97491.00;;;19.61;49.84
50057;BME280;36875;49.468;11.200;2023-05-10T10:47:05;97491.00;;;19.61;49.83
50057;BME280;36875;49.468;11.200;2023-05-10T10:49:37;97491.81;;;19.61;49.96
50057;BME280;36875;49.468;11.200;2023-05-10T10:52:22;97487.47;;;19.60;49.81
50057;BME280;36875;49.468;11.200;2023-05-10T10:54:51;97479.28;;;19.60;49.50
50057;BME280;36875;49.468;11.200;2023-05-10T10:57:19;97475.28;;;19.58;49.91
50057;BME280;36875;49.468;11.200;2023-05-10T10:59:47;97482.00;;;19.60;49.68
50057;BME280;36875;49.468;11.200;2023-05-10T11:02:32;97483.94;;;19.60;49.65
50057;BME280;36875;49.468;11.200;2023-05-10T11:04:58;97478.47;;;19.60;50.13
50057;BME280;36875;49.468;11.200;2023-05-10T11:07:26;97478.47;;;19.60;49.95
50057;BME280;36875;49.468;11.200;2023-05-10T11:09:51;97485.53;;;19.61;50.08
50057;BME280;36875;49.468;11.200;2023-05-10T11:12:17;97479.28;;;19.60;50.00
50057;BME280;36875;49.468;11.200;2023-05-10T11:14:42;97488.25;;;19.61;49.73
50057;BME280;36875;49.468;11.200;2023-05-10T11:17:23;97487.00;;;19.58;49.96
50057;BME280;36875;49.468;11.200;2023-05-10T11:20:07;97490.50;;;19.59;49.64
50057;BME280;36875;49.468;11.200;2023-05-10T11:22:51;97475.25;;;19.49;49.87
50057;BME280;36875;49.468;11.200;2023-05-10T11:25:17;97492.13;;;19.60;49.84
50057;BME280;36875;49.468;11.200;2023-05-10T11:27:42;97496.78;;;19.59;50.12
50057;BME280;36875;49.468;11.200;2023-05-10T11:30:09;97503.06;;;19.60;49.87
50057;BME280;36875;49.468;11.200;2023-05-10T11:32:37;97504.97;;;19.59;49.78
50057;BME280;36875;49.468;11.200;2023-05-10T11:35:07;97501.44;;;19.59;49.96
50057;BME280;36875;49.468;11.200;2023-05-10T11:37:32;97498.69;;;19.59;49.87
50057;BME280;36875;49.468;11.200;2023-05-10T11:40:00;97504.16;;;19.59;49.85
50057;BME280;36875;49.468;11.200;2023-05-10T11:42:27;97504.97;;;19.59;49.89
50057;BME280;36875;49.468;11.200;2023-05-10T11:44:53;97504.97;;;19.59;49.96
50057;BME280;36875;49.468;11.200;2023-05-10T11:47:18;97504.16;;;19.59;49.71
50057;BME280;36875;49.468;11.200;2023-05-10T11:49:44;97508.03;;;19.58;49.85
50057;BME280;36875;49.468;11.200;2023-05-10T11:52:10;97497.91;;;19.58;50.02
50057;BME280;36875;49.468;11.200;2023-05-10T11:54:44;97500.94;;;19.57;49.80
50057;BME280;36875;49.468;11.200;2023-05-10T11:57:12;97504.16;;;19.59;50.09
50057;BME280;36875;49.468;11.200;2023-05-10T11:59:37;97494.38;;;19.58;49.89
50057;BME280;36875;49.468;11.200;2023-05-10T12:02:03;97494.06;;;19.59;49.95
50057;BME280;36875;49.468;11.200;2023-05-10T12:04:29;97492.44;;;19.58;50.12
50057;BME280;36875;49.468;11.200;2023-05-10T12:06:55;97490.50;;;19.59;50.18
50057;BME280;36875;49.468;11.200;2023-05-10T12:09:21;97490.50;;;19.59;50.18
50057;BME280;36875;49.468;11.200;2023-05-10T12:11:46;97498.69;;;19.59;49.77
50057;BME280;36875;49.468;11.200;2023-05-10T12:14:13;97505.78;;;19.60;49.93
50057;BME280;36875;49.468;11.200;2023-05-10T12:16:42;97506.09;;;19.58;50.01
50057;BME280;36875;49.468;11.200;2023-05-10T12:19:08;97509.63;;;19.59;49.94
50057;BME280;36875;49.468;11.200;2023-05-10T12:21:33;97501.44;;;19.59;49.84
50057;BME280;36875;49.468;11.200;2023-05-10T12:24:01;97504.97;;;19.59;49.75
50057;BME280;36875;49.468;11.200;2023-05-10T12:26:27;97509.63;;;19.59;49.88
50057;BME280;36875;49.468;11.200;2023-05-10T12:28:54;97513.16;;;19.59;49.80
50057;BME280;36875;49.468;11.200;2023-05-10T12:31:21;97509.63;;;19.59;49.95
50057;BME280;36875;49.468;11.200;2023-05-10T12:33:46;97513.97;;;19.60;50.00
50057;BME280;36875;49.468;11.200;2023-05-10T12:36:15;97511.25;;;19.60;50.39
50057;BME280;36875;49.468;11.200;2023-05-10T12:38:42;97517.19;;;19.62;50.43
50057;BME280;36875;49.468;11.200;2023-05-10T12:41:10;97518.28;;;19.61;50.68
50057;BME280;36875;49.468;11.200;2023-05-10T12:43:36;97512.03;;;19.60;50.38
50057;BME280;36875;49.468;11.200;2023-05-10T12:46:06;97520.22;;;19.60;50.42
50057;BME280;36875;49.468;11.200;2023-05-10T12:48:34;97515.91;;;19.59;50.51
50057;BME280;36875;49.468;11.200;2023-05-10T12:51:00;97522.16;;;19.60;50.45